createdAt,value
2022-08-12T00:00:52.569Z,99.90
2022-08-12T00:03:38.217Z,99.90
2022-08-12T00:06:24.940Z,99.90
2022-08-12T00:09:10.636Z,99.90
2022-08-12T00:11:56.270Z,99.90
2022-08-12T00:14:42.486Z,99.90
2022-08-12T00:17:27.956Z,99.90
2022-08-12T00:20:13.553Z,99.90
2022-08-12T00:23:00.145Z,99.90
2022-08-12T00:26:22.649Z,99.90
2022-08-12T00:29:13.472Z,99.90
2022-08-12T00:32:00.309Z,99.90
2022-08-12T00:34:49.075Z,99.90
2022-08-12T00:37:35.741Z,99.90
2022-08-12T00:40:23.789Z,99.90
2022-08-12T00:42:51.558Z,99.90
2022-08-12T00:45:19.628Z,99.90
2022-08-12T00:47:47.279Z,99.90
2022-08-12T00:50:20.027Z,99.90
2022-08-12T00:52:50.121Z,99.90
2022-08-12T00:55:18.674Z,99.90
2022-08-12T00:57:48.637Z,99.90
2022-08-12T01:00:21.825Z,99.90
2022-08-12T01:02:52.194Z,99.90
2022-08-12T01:05:40.449Z,99.90
2022-08-12T01:08:26.669Z,99.90
2022-08-12T01:11:14.014Z,99.90
2022-08-12T01:13:47.351Z,99.90
2022-08-12T01:16:17.439Z,99.90
2022-08-12T01:18:45.541Z,99.90
2022-08-12T01:21:27.563Z,99.90
2022-08-12T01:24:34.089Z,99.90
2022-08-12T01:27:03.427Z,99.90
2022-08-12T01:29:42.001Z,99.90
2022-08-12T01:32:12.174Z,99.90
2022-08-12T01:34:45.294Z,99.90
2022-08-12T01:37:13.678Z,99.90
2022-08-12T01:40:33.510Z,99.90
2022-08-12T01:42:41.977Z,99.90
2022-08-12T01:45:10.074Z,99.90
2022-08-12T01:47:54.806Z,99.90
2022-08-12T01:50:40.205Z,99.90
2022-08-12T01:53:13.099Z,99.90
2022-08-12T01:55:48.438Z,99.90
2022-08-12T01:58:55.296Z,99.90
2022-08-12T02:01:27.893Z,99.90
2022-08-12T02:04:34.252Z,99.90
2022-08-12T02:07:38.790Z,99.90
2022-08-12T02:10:51.285Z,99.90
2022-08-12T02:13:56.075Z,99.90
2022-08-12T02:16:51.045Z,99.90
2022-08-12T02:19:27.721Z,99.90
2022-08-12T02:22:13.137Z,99.90
2022-08-12T02:24:42.704Z,99.90
2022-08-12T02:27:12.838Z,99.90
2022-08-12T02:29:41.138Z,99.90
2022-08-12T02:32:09.376Z,99.90
2022-08-12T02:34:37.866Z,99.90
2022-08-12T02:37:05.325Z,99.90
2022-08-12T02:39:36.026Z,99.90
2022-08-12T02:42:04.755Z,99.90
2022-08-12T02:44:40.253Z,99.90
2022-08-12T02:47:59.769Z,99.90
2022-08-12T02:49:58.517Z,99.90
2022-08-12T02:52:27.466Z,99.90
2022-08-12T02:55:01.552Z,99.90
2022-08-12T02:57:31.800Z,99.90
2022-08-12T03:00:04.090Z,99.90
2022-08-12T03:02:33.670Z,99.90
2022-08-12T03:05:03.743Z,99.90
2022-08-12T03:07:59.788Z,99.90
2022-08-12T03:10:36.487Z,99.90
2022-08-12T03:13:07.343Z,99.90
2022-08-12T03:15:35.753Z,99.90
2022-08-12T03:18:28.680Z,99.90
2022-08-12T03:20:57.343Z,99.90
2022-08-12T03:23:30.401Z,99.90
2022-08-12T03:26:01.835Z,99.90
2022-08-12T03:28:49.662Z,99.90
2022-08-12T03:31:19.678Z,99.90
2022-08-12T03:34:02.091Z,99.90
2022-08-12T03:36:32.104Z,99.90
2022-08-12T03:39:16.327Z,99.90
2022-08-12T03:41:58.331Z,99.90
2022-08-12T03:44:50.201Z,99.90
2022-08-12T03:47:45.736Z,99.90
2022-08-12T03:50:31.361Z,99.90
2022-08-12T03:53:16.918Z,99.90
2022-08-12T03:56:02.690Z,99.90
2022-08-12T03:58:48.798Z,99.90
2022-08-12T04:01:15.868Z,99.90
2022-08-12T04:03:55.313Z,99.90
2022-08-12T04:06:34.791Z,99.90
2022-08-12T04:09:14.686Z,99.90
2022-08-12T04:12:04.263Z,99.90
2022-08-12T04:14:33.127Z,99.90
2022-08-12T04:17:01.274Z,99.90
2022-08-12T04:19:29.413Z,99.90
2022-08-12T04:22:01.804Z,99.90
2022-08-12T04:24:32.195Z,99.90
2022-08-12T04:26:59.281Z,99.90
2022-08-12T04:30:29.149Z,99.90
2022-08-12T04:32:14.446Z,99.90
2022-08-12T04:34:42.489Z,99.90
2022-08-12T04:37:09.311Z,99.90
2022-08-12T04:39:39.486Z,99.90
2022-08-12T04:42:06.782Z,99.90
2022-08-12T04:44:33.689Z,99.90
2022-08-12T04:47:00.749Z,99.90
2022-08-12T04:49:28.458Z,99.90
2022-08-12T04:51:59.186Z,99.90
2022-08-12T04:54:27.678Z,99.90
2022-08-12T04:57:04.283Z,99.90
2022-08-12T04:59:46.598Z,99.90
2022-08-12T05:02:21.613Z,99.90
2022-08-12T05:04:51.992Z,99.90
2022-08-12T05:07:20.563Z,99.90
2022-08-12T05:10:00.854Z,99.90
2022-08-12T05:12:36.776Z,99.90
2022-08-12T05:15:19.894Z,99.90
2022-08-12T05:17:56.127Z,99.90
2022-08-12T05:20:23.460Z,99.90
2022-08-12T05:22:53.038Z,99.90
2022-08-12T05:25:24.599Z,99.90
2022-08-12T05:27:58.556Z,99.90
2022-08-12T05:30:31.035Z,99.90
2022-08-12T05:33:00.031Z,99.90
2022-08-12T05:35:27.946Z,99.90
2022-08-12T05:38:15.034Z,99.90
2022-08-12T05:40:42.231Z,99.90
2022-08-12T05:43:09.332Z,99.90
2022-08-12T05:45:39.255Z,99.90
2022-08-12T05:48:08.599Z,99.90
2022-08-12T05:50:35.879Z,99.90
2022-08-12T05:53:03.069Z,99.90
2022-08-12T05:55:31.845Z,99.90
2022-08-12T05:57:59.044Z,97.00
2022-08-12T06:00:26.659Z,97.80
2022-08-12T06:02:57.148Z,84.80
2022-08-12T06:05:24.178Z,70.20
2022-08-12T06:08:01.486Z,62.90
2022-08-12T06:14:16.897Z,55.70
2022-08-12T06:16:46.517Z,58.60
2022-08-12T06:19:13.371Z,45.90
2022-08-12T06:21:40.301Z,25.30
2022-08-12T06:24:08.606Z,31.30
2022-08-12T06:26:35.501Z,37.20
2022-08-12T06:29:02.510Z,21.00
2022-08-12T06:31:29.469Z,1.00
2022-08-12T06:35:22.531Z,1.00
2022-08-12T06:40:49.171Z,1.00
2022-08-12T06:43:16.136Z,1.00
2022-08-12T06:45:49.630Z,99.90
2022-08-12T06:48:17.483Z,1.00
2022-08-12T06:50:44.580Z,99.90
2022-08-12T06:53:11.845Z,99.90
2022-08-12T06:55:39.528Z,99.90
2022-08-12T06:58:25.480Z,1.00
2022-08-12T07:00:52.573Z,99.90
2022-08-12T07:03:27.901Z,1.00
2022-08-12T07:06:00.792Z,99.90
2022-08-12T07:08:32.872Z,49.70
2022-08-12T07:11:02.146Z,99.90
2022-08-12T07:14:12.366Z,99.90
2022-08-12T07:16:49.777Z,99.90
2022-08-12T07:19:19.098Z,99.90
2022-08-12T07:22:00.141Z,19.40
2022-08-12T07:24:30.033Z,1.00
2022-08-12T07:26:57.175Z,99.90
2022-08-12T07:29:59.438Z,19.40
2022-08-12T07:32:13.069Z,99.90
2022-08-12T07:34:42.401Z,99.90
2022-08-12T07:37:09.790Z,99.90
2022-08-12T07:39:36.705Z,99.90
2022-08-12T07:42:17.326Z,99.90
2022-08-12T07:44:44.287Z,99.90
2022-08-12T07:47:12.614Z,99.90
2022-08-12T07:50:03.150Z,97.00
2022-08-12T07:52:26.533Z,99.90
2022-08-12T07:54:53.608Z,97.20
2022-08-12T07:57:20.757Z,19.10
2022-08-12T07:59:48.344Z,99.90
2022-08-12T08:02:19.768Z,99.90
2022-08-12T08:05:00.775Z,99.90
2022-08-12T08:07:30.756Z,99.90
2022-08-12T08:10:00.065Z,99.90
2022-08-12T08:12:47.216Z,99.90
2022-08-12T08:15:15.841Z,99.90
2022-08-12T08:17:59.858Z,99.90
2022-08-12T08:20:28.805Z,99.90
2022-08-12T08:23:00.880Z,99.90
2022-08-12T08:25:36.235Z,1.00
2022-08-12T08:31:50.589Z,99.90
2022-08-12T08:34:47.570Z,99.90
2022-08-12T08:37:10.824Z,99.90
2022-08-12T08:39:42.741Z,99.90
2022-08-12T08:42:28.450Z,99.90
2022-08-12T08:44:58.409Z,99.90
2022-08-12T08:47:25.913Z,99.90
2022-08-12T08:49:52.995Z,99.90
2022-08-12T08:52:37.084Z,99.90
2022-08-12T08:55:07.587Z,82.90
2022-08-12T08:57:43.395Z,14.50
2022-08-12T09:00:20.061Z,99.90
2022-08-12T09:02:58.494Z,28.20
2022-08-12T09:05:27.877Z,99.90
2022-08-12T09:08:09.077Z,99.90
2022-08-12T09:10:44.982Z,1.00
2022-08-12T09:14:11.553Z,1.00
2022-08-12T09:16:20.325Z,56.00
2022-08-12T09:18:52.512Z,1.00
2022-08-12T09:21:23.230Z,1.00
2022-08-12T09:30:12.514Z,99.90
2022-08-12T09:32:56.321Z,12.70
2022-08-12T09:35:01.267Z,99.90
2022-08-12T09:37:55.351Z,1.00
2022-08-12T09:41:02.023Z,99.90
2022-08-12T09:43:24.749Z,99.90
2022-08-12T09:46:12.100Z,1.00
2022-08-12T09:48:44.465Z,1.00
2022-08-12T09:51:22.052Z,44.60
2022-08-12T09:54:08.732Z,94.40
2022-08-12T09:57:03.245Z,82.80
2022-08-12T10:00:14.634Z,99.90
2022-08-12T10:02:42.294Z,99.90
2022-08-12T10:05:04.467Z,99.90
2022-08-12T10:07:39.694Z,99.90
2022-08-12T10:10:23.089Z,99.90
2022-08-12T10:13:19.436Z,1.00
2022-08-12T10:16:05.282Z,99.90
2022-08-12T10:18:53.920Z,99.90
2022-08-12T10:21:23.994Z,99.90
2022-08-12T10:24:12.154Z,99.90
2022-08-12T10:26:59.546Z,99.90
2022-08-12T10:30:37.670Z,99.90
2022-08-12T10:32:45.239Z,99.90
2022-08-12T10:35:21.038Z,99.90
2022-08-12T10:38:33.550Z,1.00
2022-08-12T10:40:55.436Z,99.90
2022-08-12T10:43:55.841Z,99.90
2022-08-12T10:46:31.281Z,99.90
2022-08-12T10:49:06.244Z,99.90
2022-08-12T10:52:32.521Z,99.90
2022-08-12T10:54:40.591Z,99.90
2022-08-12T10:57:09.496Z,99.90
2022-08-12T11:00:30.265Z,99.90
2022-08-12T11:04:27.481Z,99.90
2022-08-12T11:07:05.910Z,99.90
2022-08-12T11:08:33.577Z,99.90
2022-08-12T11:10:54.844Z,99.90
2022-08-12T11:17:44.010Z,99.90
2022-08-12T11:20:01.977Z,99.90
2022-08-12T11:22:29.911Z,99.90
2022-08-12T11:24:59.455Z,99.90
2022-08-12T11:27:26.377Z,99.90
2022-08-12T11:30:02.302Z,99.90
2022-08-12T11:32:38.976Z,99.90
2022-08-12T11:35:07.047Z,99.90
2022-08-12T11:37:36.425Z,99.90
2022-08-12T11:40:22.914Z,99.90
2022-08-12T11:42:50.452Z,99.90
2022-08-12T11:45:19.701Z,99.90
2022-08-12T11:47:46.632Z,99.90
2022-08-12T11:50:19.732Z,99.90
2022-08-12T11:52:55.679Z,99.90
2022-08-12T11:55:24.440Z,84.50
2022-08-12T11:58:51.200Z,37.90
2022-08-12T12:03:44.194Z,15.30
2022-08-12T12:06:16.897Z,1.00
2022-08-12T12:08:50.584Z,1.00
2022-08-12T12:11:19.159Z,1.00
2022-08-12T12:14:06.581Z,1.00
2022-08-12T12:16:33.680Z,1.00
2022-08-12T12:19:10.256Z,1.00
2022-08-12T12:21:47.393Z,1.00
2022-08-12T12:24:22.209Z,17.30
2022-08-12T12:27:00.295Z,26.00
2022-08-12T12:30:13.772Z,1.10
2022-08-12T12:32:17.046Z,21.40
2022-08-12T12:35:44.517Z,13.20
2022-08-12T12:38:03.319Z,28.70
2022-08-12T12:40:19.916Z,8.80
2022-08-12T12:43:00.469Z,20.30
2022-08-12T12:45:33.617Z,37.00
2022-08-12T12:48:09.670Z,72.30
2022-08-12T12:50:45.588Z,36.10
2022-08-12T12:54:06.709Z,49.40
2022-08-12T12:56:33.894Z,27.70
2022-08-12T12:59:03.905Z,46.60
2022-08-12T13:01:36.334Z,22.80
2022-08-12T13:04:12.529Z,11.70
2022-08-12T13:06:41.407Z,27.40
2022-08-12T13:09:13.161Z,1.80
2022-08-12T13:11:41.868Z,61.10
2022-08-12T13:14:29.621Z,90.20
2022-08-12T13:17:02.754Z,98.70
2022-08-12T13:19:43.280Z,48.90
2022-08-12T13:22:20.363Z,43.40
2022-08-12T13:24:55.947Z,16.20
2022-08-12T13:27:35.751Z,40.10
2022-08-12T13:30:06.944Z,17.60
2022-08-12T13:32:38.527Z,14.90
2022-08-12T13:35:32.878Z,13.60
2022-08-12T13:37:55.823Z,23.20
2022-08-12T13:40:33.637Z,10.60
2022-08-12T13:43:02.119Z,14.70
2022-08-12T13:45:31.853Z,1.00
2022-08-12T13:48:04.293Z,1.00
2022-08-12T13:50:43.555Z,1.00
2022-08-12T13:53:24.104Z,1.00
2022-08-12T13:56:01.644Z,1.00
2022-08-12T13:58:30.956Z,1.00
2022-08-12T14:01:05.496Z,1.00
2022-08-12T14:03:51.556Z,1.00
2022-08-12T14:06:20.079Z,1.00
2022-08-12T14:08:49.745Z,1.00
2022-08-12T14:11:18.462Z,1.00
2022-08-12T14:14:03.555Z,1.00
2022-08-12T14:16:46.772Z,1.00
2022-08-12T14:19:24.360Z,1.00
2022-08-12T14:22:01.552Z,99.90
2022-08-12T14:24:35.830Z,99.90
2022-08-12T14:27:09.134Z,99.90
2022-08-12T14:30:05.391Z,99.90
2022-08-12T14:32:28.671Z,99.90
2022-08-12T14:34:56.765Z,99.90
2022-08-12T14:37:54.882Z,99.90
2022-08-12T14:40:18.585Z,99.90
2022-08-12T14:42:54.715Z,99.90
2022-08-12T14:45:22.980Z,99.90
2022-08-12T14:47:58.329Z,99.90
2022-08-12T14:50:37.714Z,99.90
2022-08-12T14:55:24.741Z,99.90
2022-08-12T14:59:20.445Z,99.90
2022-08-12T15:01:52.137Z,99.90
2022-08-12T15:04:26.099Z,99.90
2022-08-12T15:06:55.133Z,99.90
2022-08-12T15:09:29.272Z,99.90
2022-08-12T15:12:04.069Z,99.90
2022-08-12T15:14:32.030Z,99.90
2022-08-12T15:17:00.117Z,99.90
2022-08-12T15:20:17.997Z,99.90
2022-08-12T15:22:39.317Z,99.90
2022-08-12T15:25:07.305Z,99.90
2022-08-12T15:28:04.090Z,99.90
2022-08-12T15:30:31.289Z,99.90
2022-08-12T15:32:58.972Z,99.90
2022-08-12T15:35:31.138Z,99.90
2022-08-12T15:38:11.430Z,99.90
2022-08-12T15:40:48.467Z,99.90
2022-08-12T15:43:51.485Z,99.90
2022-08-12T15:46:06.421Z,99.90
2022-08-12T15:48:33.942Z,99.90
2022-08-12T15:51:02.973Z,99.90
2022-08-12T15:53:51.249Z,99.90
2022-08-12T15:56:29.405Z,99.90
2022-08-12T15:59:00.615Z,99.90
2022-08-12T16:01:35.181Z,99.90
2022-08-12T16:04:05.212Z,99.90
2022-08-12T16:09:56.157Z,99.90
2022-08-12T16:12:12.311Z,99.90
2022-08-12T16:14:41.764Z,99.90
2022-08-12T16:17:15.675Z,99.90
2022-08-12T16:20:04.924Z,1.00
2022-08-12T16:22:29.720Z,1.00
2022-08-12T16:24:57.314Z,99.90
2022-08-12T16:27:25.682Z,1.00
2022-08-12T16:29:57.681Z,1.00
2022-08-12T16:32:31.599Z,99.90
2022-08-12T16:35:00.066Z,99.90
2022-08-12T16:38:04.702Z,99.90
2022-08-12T16:40:15.698Z,99.90
2022-08-12T16:42:53.996Z,1.00
2022-08-12T16:45:32.425Z,99.90
2022-08-12T16:48:34.242Z,99.90
2022-08-12T16:51:09.870Z,67.80
2022-08-12T16:53:43.871Z,99.90
2022-08-12T16:56:14.472Z,1.00
2022-08-12T16:58:43.297Z,99.90
2022-08-12T17:01:14.696Z,99.90
2022-08-12T17:03:47.149Z,99.90
2022-08-12T17:06:22.446Z,1.00
2022-08-12T17:09:08.446Z,1.00
2022-08-12T17:11:38.856Z,1.00
2022-08-12T17:14:06.949Z,99.90
2022-08-12T17:16:37.650Z,99.90
2022-08-12T17:19:09.240Z,99.90
2022-08-12T17:21:40.916Z,99.90
2022-08-12T17:24:21.582Z,1.00
2022-08-12T17:26:51.544Z,1.00
2022-08-12T17:29:24.188Z,1.00
2022-08-12T17:32:10.319Z,1.00
2022-08-12T17:34:55.833Z,1.00
2022-08-12T17:37:23.142Z,1.00
2022-08-12T17:40:12.428Z,1.00
2022-08-12T17:42:47.605Z,1.00
2022-08-12T17:45:19.473Z,1.00
2022-08-12T17:48:00.127Z,1.00
2022-08-12T17:50:32.059Z,1.00
2022-08-12T17:53:03.054Z,1.00
2022-08-12T17:55:44.112Z,1.00
2022-08-12T17:58:21.631Z,1.00
2022-08-12T18:01:03.749Z,1.00
2022-08-12T18:03:58.223Z,1.00
2022-08-12T18:06:18.276Z,1.00
2022-08-12T18:08:54.790Z,1.00
2022-08-12T18:12:04.216Z,1.00
2022-08-12T18:14:30.110Z,1.00
2022-08-12T18:17:00.596Z,10.30
2022-08-12T18:20:03.915Z,13.20
2022-08-12T18:22:22.129Z,16.00
2022-08-12T18:25:00.770Z,19.30
2022-08-12T18:27:44.473Z,21.50
2022-08-12T18:30:20.529Z,33.40
2022-08-12T18:33:03.175Z,35.90
2022-08-12T18:35:46.929Z,52.80
2022-08-12T18:38:20.053Z,57.70
2022-08-12T18:41:09.478Z,61.20
2022-08-12T18:43:59.402Z,72.50
2022-08-12T18:46:46.833Z,75.80
2022-08-12T18:49:39.327Z,83.70
2022-08-12T18:52:08.464Z,85.80
2022-08-12T18:54:49.191Z,90.70
2022-08-12T18:58:06.366Z,92.50
2022-08-12T19:00:23.440Z,94.30
2022-08-12T19:02:55.821Z,95.30
2022-08-12T19:05:53.853Z,94.60
2022-08-12T19:08:13.038Z,96.80
2022-08-12T19:10:42.868Z,95.30
2022-08-12T19:13:36.355Z,95.20
2022-08-12T19:16:10.798Z,95.40
2022-08-12T19:18:41.052Z,95.50
2022-08-12T19:21:16.704Z,95.80
2022-08-12T19:24:04.676Z,96.70
2022-08-12T19:26:33.533Z,98.30
2022-08-12T19:29:03.151Z,99.90
2022-08-12T19:31:56.691Z,99.80
2022-08-12T19:35:24.169Z,99.90
2022-08-12T19:37:27.538Z,99.90
2022-08-12T19:40:09.769Z,99.90
2022-08-12T19:42:53.360Z,99.90
2022-08-12T19:45:22.225Z,99.90
2022-08-12T19:47:49.487Z,99.90
2022-08-12T19:50:19.664Z,99.90
2022-08-12T19:52:47.875Z,99.90
2022-08-12T19:55:21.271Z,99.90
2022-08-12T19:58:01.138Z,99.90
2022-08-12T20:00:29.125Z,99.90
2022-08-12T20:02:59.459Z,99.90
2022-08-12T20:06:05.171Z,99.90
2022-08-12T20:08:27.866Z,99.90
2022-08-12T20:12:12.405Z,99.90
2022-08-12T20:17:50.751Z,99.90
2022-08-12T20:24:08.174Z,99.90
2022-08-12T20:26:41.258Z,99.90
2022-08-12T20:29:09.438Z,99.90
2022-08-12T20:31:39.897Z,99.90
2022-08-12T20:34:06.944Z,99.90
2022-08-12T20:36:41.467Z,99.90
2022-08-12T20:39:37.374Z,99.90
2022-08-12T20:42:07.070Z,99.90
2022-08-12T20:44:39.884Z,99.90
2022-08-12T20:50:55.165Z,99.90
2022-08-12T20:53:33.056Z,99.90
2022-08-12T20:56:31.099Z,99.90
2022-08-12T20:59:00.093Z,99.90
2022-08-12T21:01:28.939Z,99.90
2022-08-12T21:04:23.586Z,99.90
2022-08-12T21:06:57.515Z,99.90
2022-08-12T21:09:25.642Z,99.90
2022-08-12T21:11:57.191Z,99.90
2022-08-12T21:14:39.852Z,99.90
2022-08-12T21:17:15.867Z,99.90
2022-08-12T21:19:52.067Z,99.90
2022-08-12T21:22:24.734Z,99.90
2022-08-12T21:24:53.077Z,99.90
2022-08-12T21:27:20.175Z,99.90
2022-08-12T21:29:55.086Z,99.90
2022-08-12T21:32:36.574Z,99.90
2022-08-12T21:35:07.583Z,99.90
2022-08-12T21:37:37.432Z,99.90
2022-08-12T21:40:13.308Z,99.90
2022-08-12T21:42:42.265Z,99.90
2022-08-12T21:45:48.035Z,99.90
2022-08-12T21:47:59.795Z,99.90
2022-08-12T21:50:33.489Z,99.90
2022-08-12T21:53:02.408Z,99.90
2022-08-12T21:55:37.588Z,99.90
2022-08-12T21:58:16.767Z,99.90
2022-08-12T22:00:43.919Z,99.90
2022-08-12T22:04:03.821Z,99.90
2022-08-12T22:06:25.968Z,99.90
2022-08-12T22:09:04.281Z,99.90
2022-08-12T22:11:41.631Z,99.90
2022-08-12T22:14:18.041Z,99.90
2022-08-12T22:16:50.516Z,99.90
2022-08-12T22:19:20.854Z,99.90
2022-08-12T22:21:53.544Z,99.90
2022-08-12T22:24:25.691Z,99.90
2022-08-12T22:26:54.773Z,99.90
2022-08-12T22:29:40.819Z,99.90
2022-08-12T22:32:11.961Z,99.90
2022-08-12T22:34:39.332Z,99.90
2022-08-12T22:37:11.103Z,99.90
2022-08-12T22:39:43.859Z,99.90
2022-08-12T22:42:30.689Z,99.90
2022-08-12T22:45:16.936Z,99.90
2022-08-12T22:47:55.023Z,99.90
2022-08-12T22:50:29.476Z,99.90
2022-08-12T22:53:16.421Z,99.90
2022-08-12T22:56:05.887Z,99.90
2022-08-12T22:58:40.153Z,99.90
2022-08-12T23:01:09.654Z,99.90
2022-08-12T23:03:47.695Z,99.90
2022-08-12T23:06:23.926Z,99.90
2022-08-12T23:08:54.782Z,99.90
2022-08-12T23:11:23.972Z,99.90
2022-08-12T23:13:56.414Z,99.90
2022-08-12T23:16:30.909Z,99.90
2022-08-12T23:19:18.024Z,99.90
2022-08-12T23:22:06.714Z,99.90
2022-08-12T23:24:56.386Z,99.90
2022-08-12T23:27:50.702Z,99.90
2022-08-12T23:30:24.742Z,99.90
2022-08-12T23:32:54.753Z,99.90
2022-08-12T23:35:45.726Z,99.90
2022-08-12T23:38:30.333Z,99.90
2022-08-12T23:40:58.263Z,99.90
2022-08-12T23:43:25.683Z,99.90
2022-08-12T23:46:00.880Z,99.90
2022-08-12T23:48:31.369Z,99.90
2022-08-12T23:50:59.640Z,99.90
2022-08-12T23:53:32.354Z,99.90
2022-08-12T23:55:59.685Z,99.90
2022-08-12T23:58:28.334Z,99.90
